Time;durP1;ratioP1;P1;durP2;ratioP2;P2;SDS_P1;SDS_P2;PMS_P1;PMS_P2;Temp;Humidity;BMP_temperature;BMP_pressure;BME280_temperature;BME280_humidity;BME280_pressure;Samples;Min_cycle;Max_cycle;Signal;HPM_P1;HPM_P2
2023/12/02 00:00:54;;;;;;;22.60;16.30;;;3.00;82.50;;;1.39;100.00;99333.50;4990067;28;19952;-78
2023/12/02 00:03:21;;;;;;;19.50;13.82;;;3.00;54.00;;;1.34;100.00;99331.78;5002644;28;20290;-78
2023/12/02 00:05:50;;;;;;;18.98;14.13;;;3.10;40.10;;;1.36;100.00;99338.72;5004586;28;20062;-77
2023/12/02 00:08:17;;;;;;;18.90;13.73;;;4.00;1.00;;;1.41;100.00;99355.09;5007201;28;20093;-78
2023/12/02 00:10:45;;;;;;;16.27;13.13;;;3.00;1.00;;;1.24;100.00;99324.03;5006324;28;20053;-78
2023/12/02 00:13:12;;;;;;;17.50;12.38;;;2.80;1.00;;;1.38;100.00;99354.22;5005784;28;20053;-78
2023/12/02 00:15:40;;;;;;;19.17;14.30;;;3.40;1.00;;;1.32;100.00;99336.97;5004099;28;20138;-78
2023/12/02 00:18:07;;;;;;;17.50;12.55;;;2.80;1.00;;;1.22;100.00;99337.88;4973222;28;20062;-78
2023/12/02 00:20:34;;;;;;;17.73;12.93;;;2.90;1.00;;;1.20;100.00;99337.03;5010430;28;20463;-78
2023/12/02 00:23:01;;;;;;;17.60;13.27;;;2.80;1.00;;;1.27;100.00;99356.84;4993119;28;20121;-77
2023/12/02 00:25:28;;;;;;;19.23;13.95;;;2.80;1.00;;;1.21;100.00;99362.06;4988987;28;20045;-78
2023/12/02 00:27:55;;;;;;;18.50;13.82;;;2.80;1.00;;;1.18;100.00;99339.59;4989719;28;20046;-78
2023/12/02 00:30:22;;;;;;;18.38;12.93;;;2.80;1.00;;;1.10;100.00;99316.31;4989667;28;20109;-78
2023/12/02 00:32:49;;;;;;;16.17;12.30;;;2.70;1.00;;;1.26;100.00;99350.84;5005806;28;20073;-78
2023/12/02 00:35:16;;;;;;;19.73;13.95;;;2.70;1.00;;;1.27;100.00;99355.16;4988179;28;20065;-78
2023/12/02 00:37:43;;;;;;;18.55;13.32;;;2.90;1.00;;;1.23;100.00;99352.56;5005751;28;20077;-78
2023/12/02 00:40:11;;;;;;;16.73;13.82;;;2.70;1.00;;;0.97;100.00;99312.88;5006881;28;20185;-78
2023/12/02 00:42:38;;;;;;;19.30;13.80;;;2.70;1.00;;;1.08;100.00;99341.34;4984712;28;20475;-78
2023/12/02 00:45:05;;;;;;;18.55;13.98;;;2.70;1.00;;;1.15;100.00;99362.06;4999313;28;20496;-79
2023/12/02 00:47:32;;;;;;;19.23;13.18;;;2.80;1.00;;;1.02;100.00;99343.97;4990932;28;20114;-78
2023/12/02 00:49:59;;;;;;;18.58;14.00;;;2.70;1.00;;;1.20;100.00;99368.97;4988083;28;20038;-78
2023/12/02 00:52:27;;;;;;;21.17;14.07;;;3.10;1.00;;;0.95;100.00;99343.13;4981258;28;20043;-78
2023/12/02 00:54:54;;;;;;;20.13;13.50;;;2.60;1.00;;;1.11;100.00;99359.47;5004558;28;20591;-78
2023/12/02 00:57:21;;;;;;;16.02;12.80;;;2.60;1.00;;;1.02;100.00;99362.09;5005509;28;20053;-78
2023/12/02 00:59:48;;;;;;;21.92;14.93;;;2.60;1.00;;;0.98;100.00;99347.41;5020880;28;20046;-78
2023/12/02 01:02:15;;;;;;;19.83;15.02;;;2.60;1.00;;;1.17;100.00;99366.38;4990126;28;20083;-78
2023/12/02 01:04:42;;;;;;;23.23;15.80;;;2.60;1.00;;;0.90;100.00;99326.69;4988004;28;20046;-78
2023/12/02 01:07:09;;;;;;;21.20;15.02;;;2.60;1.00;;;1.07;100.00;99354.31;4996772;28;20092;-78
2023/12/02 01:09:36;;;;;;;20.88;15.20;;;2.60;1.00;;;0.92;100.00;99343.09;5005140;28;20416;-79
2023/12/02 01:12:03;;;;;;;20.83;14.80;;;2.60;1.00;;;0.78;100.00;99322.41;4988286;28;20045;-78
2023/12/02 01:14:31;;;;;;;21.05;14.20;;;2.50;35.90;;;0.95;100.00;99350.00;4987725;28;20081;-78
2023/12/02 01:16:58;;;;;;;20.17;13.80;;;3.00;64.60;;;0.94;100.00;99349.16;5004917;28;20038;-78
2023/12/02 01:19:25;;;;;;;18.45;13.60;;;2.60;29.90;;;0.90;100.00;99342.25;4991657;28;20519;-78
2023/12/02 01:21:52;;;;;;;22.45;14.98;;;2.50;24.90;;;0.81;100.00;99327.56;4983667;28;20048;-77
2023/12/02 01:24:19;;;;;;;19.92;14.30;;;2.50;43.90;;;1.03;100.00;99381.09;4980538;28;20570;-78
2023/12/02 01:26:46;;;;;;;21.05;15.25;;;2.60;99.90;;;0.97;100.00;99380.25;5004855;28;20070;-78
2023/12/02 01:29:13;;;;;;;22.77;15.23;;;2.60;99.90;;;0.89;100.00;99366.41;4988394;28;20069;-78
2023/12/02 01:31:40;;;;;;;21.73;16.02;;;2.50;99.90;;;0.71;100.00;99346.59;5004634;28;20136;-78
2023/12/02 01:34:07;;;;;;;19.90;15.13;;;2.50;99.90;;;0.88;100.00;99371.63;4987287;28;20050;-78
2023/12/02 01:36:34;;;;;;;21.63;14.38;;;2.50;99.90;;;0.85;100.00;99375.06;5004142;28;20042;-78
2023/12/02 01:39:01;;;;;;;24.90;15.90;;;2.70;99.90;;;0.91;100.00;99387.16;4988404;28;20133;-77
2023/12/02 01:41:31;;;;;;;22.25;15.55;;;2.40;99.90;;;0.90;100.00;99369.88;4983509;28;20042;-79
2023/12/02 01:43:58;;;;;;;22.10;17.13;;;2.50;99.90;;;0.80;100.00;99372.47;5001518;28;20061;-80
2023/12/02 01:46:26;;;;;;;23.50;16.25;;;2.50;99.90;;;0.80;100.00;99379.38;5009144;28;20074;-78
2023/12/02 01:48:54;;;;;;;25.27;16.90;;;2.40;99.90;;;0.75;100.00;99366.44;5009357;28;20092;-80
2023/12/02 01:51:21;;;;;;;23.63;16.90;;;2.30;99.90;;;0.73;100.00;99378.53;5001566;28;20088;-79
2023/12/02 01:53:48;;;;;;;25.85;16.33;;;2.50;99.90;;;0.73;100.00;99386.28;4991954;28;20159;-79
2023/12/02 01:56:16;;;;;;;21.83;16.20;;;2.40;99.90;;;0.50;100.00;99368.16;5017276;28;20046;-80
2023/12/02 01:58:43;;;;;;;23.33;16.92;;;2.40;99.90;;;0.78;100.00;99414.75;4992419;28;20043;-79
2023/12/02 02:01:10;;;;;;;25.80;17.10;;;2.40;1.00;;;0.33;100.00;99355.19;4989570;28;20046;-78
2023/12/02 02:03:37;;;;;;;25.15;18.30;;;2.30;1.00;;;0.72;100.00;99415.63;4994229;28;20042;-78
2023/12/02 02:06:05;;;;;;;25.35;17.73;;;2.40;1.00;;;0.79;100.00;99427.72;5007988;28;20430;-77
2023/12/02 02:08:32;;;;;;;26.88;18.08;;;2.30;1.00;;;0.52;100.00;99387.97;4989583;28;20089;-77
2023/12/02 02:10:59;;;;;;;26.02;18.10;;;2.30;1.00;;;0.69;100.00;99432.03;5005436;28;20447;-79
2023/12/02 02:13:27;;;;;;;21.98;16.25;;;2.20;1.00;;;0.68;100.00;99429.41;5005201;28;20569;-78
2023/12/02 02:15:54;;;;;;;25.27;17.50;;;2.30;1.00;;;0.48;100.00;99401.78;5004666;28;20053;-78
2023/12/02 02:18:21;;;;;;;23.00;16.27;;;2.20;1.00;;;0.64;100.00;99433.75;5007884;28;20042;-79
2023/12/02 02:20:51;;;;;;;25.85;18.42;;;2.30;1.00;;;0.66;100.00;99429.44;4985955;28;20146;-78
2023/12/02 02:23:20;;;;;;;32.35;19.08;;;2.20;1.00;;;0.50;100.00;99410.41;4989913;28;20106;-76
2023/12/02 02:25:53;;;;;;;25.10;18.13;;;2.10;1.00;;;0.55;100.00;99428.53;5001467;28;20034;-80
2023/12/02 02:28:21;;;;;;;24.30;17.10;;;2.20;1.00;;;0.62;100.00;99450.13;4991872;28;20109;-77
2023/12/02 02:30:49;;;;;;;28.50;18.48;;;2.90;1.00;;;0.56;100.00;99431.16;4994805;28;20046;-78
2023/12/02 02:33:17;;;;;;;24.73;16.38;;;2.20;1.00;;;0.19;100.00;99379.28;4988416;28;20054;-80
2023/12/02 02:35:44;;;;;;;26.17;17.63;;;2.10;1.00;;;0.54;100.00;99437.16;5001846;28;20057;-79
2023/12/02 02:38:11;;;;;;;24.45;18.35;;;2.10;1.00;;;0.44;100.00;99431.13;4991126;28;20049;-78
2023/12/02 02:40:39;;;;;;;27.63;17.83;;;2.00;1.00;;;0.43;100.00;99434.56;5004676;28;20035;-79
2023/12/02 02:43:06;;;;;;;23.95;16.38;;;4.10;1.00;;;0.18;100.00;99418.13;5005102;28;20125;-79
2023/12/02 02:45:33;;;;;;;26.02;17.23;;;3.40;1.00;;;0.40;100.00;99438.00;4987509;28;20042;-77
2023/12/02 02:48:00;;;;;;;24.48;15.15;;;2.00;1.00;;;0.41;100.00;99446.66;4986449;28;20092;-79
2023/12/02 02:50:27;;;;;;;20.70;15.55;;;2.00;1.00;;;0.41;100.00;99444.06;4989307;28;20038;-79
2023/12/02 02:52:54;;;;;;;23.33;16.70;;;2.00;1.00;;;0.31;100.00;99419.84;4988382;28;20057;-78
2023/12/02 02:55:21;;;;;;;24.63;16.13;;;2.00;1.00;;;0.44;100.00;99428.53;4987584;28;20567;-80
2023/12/02 02:57:48;;;;;;;21.75;15.82;;;2.00;1.00;;;0.32;100.00;99416.44;5004926;28;20041;-78
2023/12/02 03:00:16;;;;;;;21.90;15.02;;;2.00;1.00;;;0.27;100.00;99410.38;5004517;28;20125;-79
2023/12/02 03:02:43;;;;;;;22.75;14.63;;;1.90;99.90;;;0.35;100.00;99433.66;4989857;28;20122;-79
2023/12/02 03:05:10;;;;;;;19.67;14.27;;;3.10;99.90;;;0.19;100.00;99420.69;4995337;28;20051;-79
2023/12/02 03:07:37;;;;;;;22.98;15.02;;;2.00;99.90;;;0.26;100.00;99431.94;4988380;28;20042;-80
2023/12/02 03:10:05;;;;;;;21.88;15.48;;;1.80;99.90;;;0.25;100.00;99437.97;5005249;28;20043;-78
2023/12/02 03:12:32;;;;;;;20.83;14.75;;;1.90;99.90;;;0.19;100.00;99436.22;5004945;28;20467;-78
2023/12/02 03:14:59;;;;;;;17.75;13.77;;;1.80;99.90;;;0.26;100.00;99452.63;4987886;28;20497;-80
2023/12/02 03:17:26;;;;;;;20.50;13.32;;;1.80;99.90;;;0.12;100.00;99435.31;5005177;28;20053;-77
2023/12/02 03:19:53;;;;;;;18.42;14.38;;;1.90;99.90;;;0.19;100.00;99435.38;5020479;28;20057;-80
2023/12/02 03:22:20;;;;;;;18.33;13.40;;;1.90;99.90;;;0.06;100.00;99416.31;5000773;28;20045;-78
2023/12/02 03:24:47;;;;;;;19.10;13.63;;;1.90;99.90;;;0.24;100.00;99451.75;4995405;28;20037;-78
2023/12/02 03:27:14;;;;;;;19.05;13.13;;;1.80;99.90;;;0.28;100.00;99453.50;4999489;28;20595;-77
2023/12/02 03:29:41;;;;;;;17.50;12.68;;;1.80;99.90;;;0.10;100.00;99446.53;5005705;28;20474;-79
2023/12/02 03:32:08;;;;;;;19.85;12.15;;;1.80;99.90;;;0.03;100.00;99430.13;4974381;28;20117;-78
2023/12/02 03:34:35;;;;;;;22.30;15.25;;;1.60;99.90;;;-0.07;100.00;99429.25;4988118;28;20050;-78
2023/12/02 03:37:03;;;;;;;18.27;13.10;;;3.10;99.90;;;0.09;100.00;99456.00;5013772;28;20145;-78
2023/12/02 03:39:30;;;;;;;19.95;13.15;;;1.60;99.90;;;-0.06;100.00;99433.56;4984772;28;20046;-77
2023/12/02 03:41:57;;;;;;;18.48;13.30;;;1.70;99.90;;;-0.07;100.00;99431.81;5005264;28;20536;-80
2023/12/02 03:44:24;;;;;;;17.80;13.07;;;1.80;99.90;;;0.03;100.00;99448.25;5010858;28;20129;-78
2023/12/02 03:46:51;;;;;;;17.00;13.25;;;1.70;99.90;;;0.01;100.00;99447.38;4978352;28;20042;-78
2023/12/02 03:49:18;;;;;;;19.25;14.02;;;1.50;99.90;;;0.05;100.00;99458.56;4992577;28;20058;-78
2023/12/02 03:51:45;;;;;;;16.75;13.35;;;1.60;99.90;;;0.06;100.00;99462.88;4993057;28;20046;-80
2023/12/02 03:54:12;;;;;;;15.32;12.15;;;1.70;99.90;;;-0.61;100.00;99366.94;5007922;28;20760;-78
2023/12/02 03:56:39;;;;;;;17.88;13.07;;;1.70;99.90;;;-0.04;100.00;99456.81;5007880;28;20081;-78
2023/12/02 03:59:06;;;;;;;17.63;12.82;;;1.60;99.90;;;-0.05;100.00;99462.84;4997102;28;20068;-77
2023/12/02 04:01:33;;;;;;;18.23;13.20;;;1.50;99.90;;;0.05;100.00;99485.31;4997575;28;20045;-78
2023/12/02 04:04:00;;;;;;;18.90;12.77;;;1.70;99.90;;;-0.07;100.00;99473.19;4992156;28;20046;-79
2023/12/02 04:06:27;;;;;;;16.90;12.75;;;1.70;99.90;;;-0.01;100.00;99499.09;5008540;28;20047;-77
2023/12/02 04:08:54;;;;;;;17.50;12.65;;;1.60;99.90;;;-0.03;100.00;99505.97;5008984;28;20038;-80
2023/12/02 04:11:21;;;;;;;16.27;12.68;;;1.60;99.90;;;-0.06;100.00;99493.03;5016691;28;20072;-78
2023/12/02 04:13:49;;;;;;;18.50;13.35;;;1.60;99.90;;;-0.20;100.00;99469.66;5008523;28;20053;-80
2023/12/02 04:16:16;;;;;;;18.90;13.27;;;1.50;99.90;;;-0.13;100.00;99491.25;4999186;28;20121;-79
2023/12/02 04:18:43;;;;;;;19.42;13.13;;;1.50;99.90;;;-0.13;100.00;99493.00;4997548;28;20054;-79
2023/12/02 04:21:10;;;;;;;17.92;12.95;;;1.60;99.90;;;-0.34;100.00;99463.56;5002886;28;20092;-79
2023/12/02 04:23:37;;;;;;;20.00;15.18;;;1.50;99.90;;;-0.37;100.00;99464.41;4992316;28;20047;-79
2023/12/02 04:26:06;;;;;;;16.23;12.52;;;1.60;99.90;;;-0.11;100.00;99510.22;5008690;28;20054;-78
2023/12/02 04:28:34;;;;;;;15.82;11.65;;;1.50;99.90;;;-0.05;100.00;99530.97;4995086;28;20364;-79
2023/12/02 04:31:01;;;;;;;15.95;12.68;;;1.70;99.90;;;-0.15;100.00;99517.13;4992619;28;20046;-79
2023/12/02 04:33:28;;;;;;;16.50;12.63;;;1.60;99.90;;;-0.43;100.00;99480.75;4992232;28;20080;-80
2023/12/02 04:35:55;;;;;;;18.23;13.07;;;1.50;99.90;;;-0.19;100.00;99536.03;5008453;28;20042;-77
2023/12/02 04:38:22;;;;;;;17.38;12.30;;;1.50;99.90;;;-0.13;100.00;99532.63;5002966;28;20571;-80
2023/12/02 04:40:49;;;;;;;15.60;11.02;;;1.50;99.90;;;-0.18;100.00;99519.66;4997661;28;20050;-78
2023/12/02 04:43:16;;;;;;;13.70;10.75;;;1.40;99.90;;;-0.25;100.00;99527.38;4993569;28;20477;-80
2023/12/02 04:45:43;;;;;;;14.75;11.68;;;1.40;99.90;;;-0.15;100.00;99542.97;4976618;28;20049;-80
2023/12/02 04:48:11;;;;;;;15.23;11.15;;;1.40;99.90;;;-0.39;100.00;99512.66;4991998;28;20066;-79
2023/12/02 04:50:39;;;;;;;16.35;11.70;;;1.50;99.90;;;-0.34;100.00;99516.13;4997907;28;20077;-80
2023/12/02 04:53:06;;;;;;;15.50;10.82;;;1.50;99.90;;;-0.30;100.00;99524.78;4994026;28;20052;-78
2023/12/02 04:55:33;;;;;;;15.18;11.55;;;1.40;98.90;;;-0.28;100.00;99536.00;4980662;28;20508;-80
2023/12/02 04:58:00;;;;;;;17.20;11.63;;;1.60;99.90;;;-0.22;100.00;99545.53;4994075;28;20046;-79
2023/12/02 05:00:27;;;;;;;14.52;10.60;;;1.30;54.60;;;-0.34;100.00;99536.81;4990481;28;20461;-78
2023/12/02 05:02:54;;;;;;;13.35;10.13;;;1.30;11.30;;;-0.50;100.00;99522.91;5013616;28;20048;-77
2023/12/02 05:05:22;;;;;;;15.45;10.73;;;1.40;1.00;;;-0.41;100.00;99532.44;4992932;28;20117;-78
2023/12/02 05:07:49;;;;;;;14.20;10.75;;;1.40;1.00;;;-0.43;100.00;99549.66;5003497;28;20066;-78
2023/12/02 05:10:16;;;;;;;12.30;9.95;;;1.50;1.00;;;-0.17;100.00;99588.63;5008575;28;20084;-78
2023/12/02 05:12:43;;;;;;;13.40;9.90;;;1.40;1.00;;;-0.27;100.00;99576.50;5000753;28;20128;-77
2023/12/02 05:15:10;;;;;;;12.02;9.30;;;1.40;1.00;;;-0.23;100.00;99590.31;5016513;28;20551;-79
2023/12/02 05:17:37;;;;;;;13.85;10.45;;;1.40;99.90;;;-0.25;100.00;99586.84;4980326;28;20150;-78
2023/12/02 05:20:05;;;;;;;14.88;11.73;;;1.40;99.90;;;-0.27;100.00;99588.56;5005310;28;20066;-77
2023/12/02 05:22:33;;;;;;;13.25;9.70;;;1.40;1.00;;;-0.27;100.00;99579.09;4998080;28;20050;-78
2023/12/02 05:25:00;;;;;;;13.73;9.88;;;1.40;99.90;;;-0.26;100.00;99598.91;5020925;28;20404;-79
2023/12/02 05:27:27;;;;;;;12.43;9.75;;;1.40;99.90;;;-0.43;100.00;99593.59;4997218;28;20517;-79
2023/12/02 05:29:54;;;;;;;13.55;9.90;;;1.20;99.90;;;-0.34;100.00;99605.72;4986661;28;20064;-79
2023/12/02 05:32:21;;;;;;;14.68;9.27;;;1.40;1.00;;;-0.15;100.00;99627.44;4986929;28;20413;-77
2023/12/02 05:34:48;;;;;;;12.40;9.43;;;1.20;99.90;;;-0.29;100.00;99617.84;4988373;28;20100;-78
2023/12/02 05:37:15;;;;;;;14.23;9.40;;;1.30;99.90;;;-0.30;100.00;99613.53;4988790;28;20100;-78
2023/12/02 05:39:42;;;;;;;13.40;9.63;;;1.30;99.90;;;-0.21;100.00;99643.75;4988908;28;20054;-79
2023/12/02 05:42:09;;;;;;;12.98;9.55;;;1.40;99.90;;;-0.27;100.00;99617.00;5005482;28;20126;-79
2023/12/02 05:44:38;;;;;;;11.75;9.13;;;1.40;99.90;;;-0.26;100.00;99634.22;4988009;28;20068;-78
2023/12/02 05:47:05;;;;;;;14.07;10.93;;;1.40;99.90;;;-0.39;100.00;99626.41;5004745;28;20038;-77
2023/12/02 05:49:32;;;;;;;15.52;10.18;;;2.10;99.90;;;-0.31;100.00;99637.66;4999685;28;20487;-79
2023/12/02 05:51:59;;;;;;;14.40;10.38;;;1.30;99.90;;;-0.35;100.00;99633.31;4996362;28;20049;-77
2023/12/02 05:54:27;;;;;;;13.02;9.45;;;1.30;1.00;;;-0.32;100.00;99640.22;5005349;28;20056;-79
2023/12/02 05:56:54;;;;;;;13.10;9.63;;;1.40;99.90;;;-0.37;100.00;99631.56;5013571;28;20504;-78
2023/12/02 05:59:21;;;;;;;11.93;9.27;;;1.30;99.90;;;-0.40;100.00;99632.38;5014876;28;20104;-78
2023/12/02 06:01:49;;;;;;;12.65;10.05;;;1.50;99.90;;;-0.85;100.00;99562.22;4989055;28;20061;-80
2023/12/02 06:04:16;;;;;;;11.52;8.82;;;1.30;99.90;;;-0.34;100.00;99637.63;4993004;28;20074;-78
2023/12/02 06:06:47;;;;;;;15.30;10.15;;;1.40;99.90;;;-0.25;100.00;99661.81;5006033;28;20038;-79
2023/12/02 06:09:14;;;;;;;12.25;9.35;;;1.30;68.00;;;-0.31;100.00;99657.50;4990099;28;20382;-78
2023/12/02 06:11:43;;;;;;;13.48;10.25;;;1.30;89.90;;;-0.30;100.00;99656.63;5006582;28;20357;-80
2023/12/02 06:14:10;;;;;;;13.55;10.00;;;1.50;99.90;;;-0.41;100.00;99645.31;4989801;28;20046;-78
2023/12/02 06:16:37;;;;;;;11.48;8.68;;;1.30;35.00;;;-0.36;100.00;99667.78;4990335;28;20042;-79
2023/12/02 06:19:04;;;;;;;13.40;10.65;;;1.30;46.30;;;-0.30;100.00;99674.72;5006628;28;20038;-79
2023/12/02 06:21:31;;;;;;;12.25;9.75;;;1.20;99.90;;;-0.27;100.00;99676.44;4990560;28;20074;-79
2023/12/02 06:23:58;;;;;;;12.85;9.73;;;1.30;99.90;;;-0.22;100.00;99688.56;5005931;28;20637;-78
2023/12/02 06:26:25;;;;;;;13.65;10.20;;;1.40;99.90;;;-0.41;100.00;99663.41;4991108;28;20128;-80
2023/12/02 06:28:53;;;;;;;13.07;10.10;;;1.30;1.00;;;-0.30;100.00;99685.91;4989832;28;20066;-78
2023/12/02 06:31:20;;;;;;;12.35;9.35;;;1.50;1.00;;;-0.41;100.00;99655.66;4989856;28;20536;-78
2023/12/02 06:33:48;;;;;;;13.02;8.77;;;1.40;1.00;;;-0.34;100.00;99688.47;5006280;28;20124;-79
2023/12/02 06:36:15;;;;;;;11.95;9.02;;;1.30;1.00;;;-0.60;100.00;99674.44;4989839;28;20201;-77
2023/12/02 06:38:42;;;;;;;12.63;9.95;;;1.30;1.00;;;-0.44;100.00;99677.16;5006704;28;20046;-79
2023/12/02 06:41:09;;;;;;;12.43;8.90;;;1.30;99.90;;;-0.35;100.00;99697.06;4999266;28;20066;-78
2023/12/02 06:43:36;;;;;;;11.93;9.82;;;1.40;99.90;;;-0.37;100.00;99703.94;4999505;28;20116;-78
2023/12/02 06:46:04;;;;;;;12.15;9.55;;;1.30;99.90;;;-0.37;100.00;99707.41;4991323;28;20082;-79
2023/12/02 06:48:31;;;;;;;13.02;10.18;;;1.20;99.90;;;-0.40;100.00;99698.75;5011633;28;20117;-78
2023/12/02 06:50:58;;;;;;;11.85;8.85;;;1.30;99.90;;;-0.65;100.00;99673.53;4996115;28;20121;-78
2023/12/02 06:53:25;;;;;;;12.82;10.10;;;1.40;1.00;;;-0.81;100.00;99646.63;4990616;28;20057;-78
2023/12/02 06:55:52;;;;;;;11.40;8.25;;;1.30;99.90;;;-0.47;100.00;99710.75;5006819;28;20050;-78
2023/12/02 06:58:19;;;;;;;12.13;8.88;;;1.30;99.90;;;-0.35;100.00;99723.78;5007257;28;20525;-78
2023/12/02 07:00:46;;;;;;;11.25;8.43;;;1.30;99.90;;;-0.46;100.00;99723.69;5006018;28;20049;-78
2023/12/02 07:03:13;;;;;;;13.02;9.65;;;1.20;99.90;;;-0.50;100.00;99721.06;5018558;28;20050;-78
2023/12/02 07:05:40;;;;;;;11.80;9.23;;;1.10;99.90;;;-0.51;100.00;99717.59;5021701;28;20113;-79
2023/12/02 07:08:08;;;;;;;12.25;9.00;;;1.30;1.00;;;-0.40;100.00;99745.28;4982999;28;20540;-77
2023/12/02 07:10:35;;;;;;;12.50;9.57;;;1.30;99.90;;;-0.30;100.00;99760.91;4994342;28;20053;-77
2023/12/02 07:13:02;;;;;;;11.25;9.13;;;1.10;99.90;;;-0.32;100.00;99762.59;4986674;28;20051;-78
2023/12/02 07:15:29;;;;;;;12.50;9.10;;;1.30;99.90;;;-0.59;100.00;99708.91;5003817;28;20492;-79
2023/12/02 07:17:56;;;;;;;11.07;8.68;;;1.40;99.90;;;-0.53;100.00;99713.28;5007329;28;20054;-78
2023/12/02 07:20:23;;;;;;;11.65;8.88;;;1.30;99.90;;;-0.47;100.00;99740.06;4997790;28;20141;-79
2023/12/02 07:22:50;;;;;;;11.73;9.20;;;2.30;99.90;;;-0.44;100.00;99752.13;4995410;28;20440;-79
2023/12/02 07:25:18;;;;;;;11.45;9.07;;;1.40;62.20;;;-0.27;100.00;99778.16;5020000;28;20136;-79
2023/12/02 07:27:45;;;;;;;13.02;8.52;;;1.30;96.60;;;-0.47;100.00;99760.72;4986990;28;20042;-81
2023/12/02 07:30:12;;;;;;;10.65;8.48;;;1.10;57.60;;;-0.49;100.00;99746.03;5006643;28;20068;-80
2023/12/02 07:32:54;;;;;;;10.93;8.60;;;1.30;11.20;;;-0.88;100.00;99693.94;5004331;28;20053;-80
2023/12/02 07:35:31;;;;;;;11.10;7.88;;;2.50;1.00;;;-0.49;100.00;99752.06;5001704;28;20256;-80
2023/12/02 07:38:00;;;;;;;10.18;8.07;;;3.40;84.30;;;-1.06;100.00;99679.06;4997065;28;20128;-79
2023/12/02 07:40:27;;;;;;;13.25;9.60;;;1.10;1.00;;;-0.55;100.00;99754.59;4998472;28;20134;-79
2023/12/02 07:42:54;;;;;;;11.48;8.32;;;1.20;29.80;;;-0.34;100.00;99769.47;4989715;28;20042;-79
2023/12/02 07:45:21;;;;;;;12.63;8.75;;;1.40;33.90;;;-0.37;100.00;99771.16;5004809;28;20082;-79
2023/12/02 07:47:48;;;;;;;9.60;7.60;;;1.20;5.40;;;-0.39;100.00;99768.56;5010250;28;20042;-79
2023/12/02 07:50:16;;;;;;;11.02;7.78;;;1.30;1.00;;;-0.52;100.00;99751.19;5002941;28;20081;-79
2023/12/02 07:52:43;;;;;;;9.88;6.80;;;1.40;99.90;;;-0.33;100.00;99806.53;5010557;28;20042;-78
2023/12/02 07:55:10;;;;;;;9.60;7.15;;;1.30;99.90;;;-0.53;100.00;99770.97;5011149;28;20058;-78
2023/12/02 07:57:37;;;;;;;10.27;6.68;;;1.30;99.90;;;-0.31;100.00;99799.69;5001577;28;20045;-80
2023/12/02 08:00:05;;;;;;;10.65;8.00;;;1.40;99.90;;;-0.33;100.00;99811.69;5011764;28;20051;-79
2023/12/02 08:02:38;;;;;;;7.38;6.13;;;1.30;99.90;;;-0.31;100.00;99808.28;4992463;28;20066;-80
2023/12/02 08:05:05;;;;;;;9.68;7.05;;;1.20;1.00;;;-0.59;100.00;99776.94;5016462;28;20066;-81
2023/12/02 08:07:35;;;;;;;8.90;7.20;;;1.20;1.00;;;-0.38;100.00;99796.16;4995469;28;20156;-80
2023/12/02 08:10:02;;;;;;;9.10;6.97;;;1.30;1.00;;;-0.29;100.00;99829.00;4983440;28;20039;-79
2023/12/02 08:12:29;;;;;;;8.85;7.38;;;1.40;1.00;;;-0.63;100.00;99764.84;5011016;28;20096;-81
2023/12/02 08:14:56;;;;;;;8.88;6.85;;;1.40;1.00;;;-0.35;100.00;99828.91;4994909;28;20046;-80
2023/12/02 08:17:23;;;;;;;8.98;6.53;;;1.20;99.90;;;-0.44;100.00;99798.66;4994543;28;20064;-80
2023/12/02 08:19:50;;;;;;;7.97;6.95;;;1.40;1.00;;;-0.30;100.00;99833.28;4994834;28;20050;-80
2023/12/02 08:22:21;;;;;;;10.13;7.65;;;1.30;1.00;;;-0.36;100.00;99825.47;4994696;28;20045;-80
2023/12/02 08:24:48;;;;;;;8.25;6.60;;;1.40;1.00;;;-0.75;100.00;99773.31;4995311;28;20520;-80
2023/12/02 08:27:17;;;;;;;9.25;7.03;;;1.80;99.90;;;-0.30;100.00;99848.81;5001754;28;20050;-80
2023/12/02 08:29:44;;;;;;;8.48;6.45;;;1.30;99.90;;;-0.25;100.00;99855.72;4999356;28;20022;-80
2023/12/02 08:32:12;;;;;;;8.85;6.68;;;1.40;99.90;;;-0.55;100.00;99821.78;4986790;28;20113;-80
2023/12/02 08:34:39;;;;;;;6.93;5.68;;;3.50;99.90;;;-0.27;100.00;99847.97;4998773;28;20412;-81
2023/12/02 08:37:06;;;;;;;7.20;6.30;;;3.90;99.90;;;-0.18;100.00;99854.97;5007610;28;20408;-79
2023/12/02 08:39:34;;;;;;;6.63;5.78;;;1.70;29.20;;;-0.38;100.00;99808.19;5006146;28;20356;-77
2023/12/02 08:42:01;;;;;;;6.88;5.95;;;1.60;1.00;;;0.05;100.00;99878.50;4993594;28;20496;-82
2023/12/02 08:44:29;;;;;;;6.97;6.07;;;1.60;1.00;;;-0.47;100.00;99806.38;4995104;28;20053;-83
2023/12/02 08:46:58;;;;;;;8.27;6.13;;;1.50;99.90;;;-0.32;100.00;99850.50;5015644;28;20508;-83
2023/12/02 08:49:25;;;;;;;6.90;6.30;;;1.50;99.90;;;-0.11;100.00;99889.53;4975958;28;20096;-79
2023/12/02 08:51:52;;;;;;;8.25;6.78;;;1.50;1.00;;;-0.05;100.00;99895.66;4990408;28;20068;-79
2023/12/02 08:54:19;;;;;;;7.57;6.40;;;2.90;1.00;;;-0.06;100.00;99899.09;5021685;28;20078;-79
2023/12/02 08:56:47;;;;;;;9.13;6.05;;;2.30;99.90;;;0.02;100.00;99906.94;5003111;28;20042;-79
2023/12/02 08:59:14;;;;;;;7.68;6.88;;;1.60;99.90;;;-0.13;100.00;99886.06;5002616;28;20489;-79
2023/12/02 09:01:41;;;;;;;7.35;6.07;;;1.60;8.30;;;-0.19;100.00;99882.53;4991731;28;20088;-79
2023/12/02 09:04:08;;;;;;;10.13;6.65;;;1.50;99.90;;;-0.12;100.00;99875.72;4990628;28;20042;-78
2023/12/02 09:06:35;;;;;;;6.10;5.22;;;1.70;61.80;;;-0.20;100.00;99867.03;4994267;28;20412;-79
2023/12/02 09:09:07;;;;;;;9.45;8.18;;;1.60;1.00;;;0.05;100.00;99906.97;4991460;28;20052;-79
2023/12/02 09:11:34;;;;;;;8.02;6.60;;;1.50;1.00;;;0.08;100.00;99901.81;4991224;28;20129;-79
2023/12/02 09:14:02;;;;;;;7.82;6.30;;;1.60;1.00;;;-0.18;100.00;99883.41;5007312;28;20057;-79
2023/12/02 09:16:30;;;;;;;8.38;6.38;;;1.60;1.00;;;-0.03;100.00;99899.13;4992734;28;20487;-79
2023/12/02 09:18:57;;;;;;;7.55;6.70;;;1.70;1.00;;;0.02;100.00;99919.88;4991303;28;20050;-79
2023/12/02 09:21:44;;;;;;;7.43;6.15;;;1.70;1.00;;;0.13;100.00;99930.34;4993460;28;20068;-78
2023/12/02 09:24:42;;;;;;;7.53;6.55;;;1.80;99.90;;;0.12;100.00;99931.19;5004796;28;20042;-78
2023/12/02 09:27:44;;;;;;;6.85;6.13;;;1.80;99.90;;;-0.32;100.00;99859.97;4984696;28;20058;-78
2023/12/02 09:30:15;;;;;;;9.27;7.15;;;1.70;99.90;;;0.22;100.00;99948.53;5007104;28;20070;-76
2023/12/02 09:32:46;;;;;;;7.53;6.10;;;1.70;99.90;;;0.26;100.00;99955.50;4989548;28;20130;-76
2023/12/02 09:35:14;;;;;;;8.85;6.85;;;1.80;97.40;;;0.19;100.00;99933.00;5000376;28;20544;-76
2023/12/02 09:38:01;;;;;;;11.63;6.75;;;1.80;99.90;;;0.31;100.00;99952.09;4994080;28;20052;-76
2023/12/02 09:40:43;;;;;;;6.95;6.25;;;1.90;68.60;;;0.33;100.00;99961.63;5012620;28;20050;-75
2023/12/02 09:43:35;;;;;;;7.55;6.03;;;2.00;22.90;;;0.33;100.00;99964.22;5018908;28;20044;-76
2023/12/02 09:46:27;;;;;;;6.88;5.88;;;2.00;1.00;;;0.34;100.00;99976.31;5018317;28;20137;-76
2023/12/02 09:49:24;;;;;;;9.80;6.70;;;2.00;1.00;;;0.33;100.00;99984.91;5003022;28;20069;-78
2023/12/02 09:52:28;;;;;;;8.70;7.00;;;2.00;90.90;;;0.34;100.00;99986.66;4997581;28;20447;-77
2023/12/02 09:55:38;;;;;;;8.30;6.93;;;1.90;99.90;;;0.27;100.00;99971.88;4990500;28;20046;-76
2023/12/02 09:58:32;;;;;;;8.50;7.18;;;1.90;1.00;;;0.33;100.00;99977.16;4971967;28;20157;-77
2023/12/02 10:01:20;;;;;;;7.93;7.05;;;2.00;86.50;;;0.30;100.00;99979.69;5002105;28;20073;-76
2023/12/02 10:03:59;;;;;;;8.52;7.53;;;1.90;99.90;;;0.39;100.00;99991.88;4996210;28;20052;-75
2023/12/02 10:06:48;;;;;;;9.18;8.05;;;1.90;29.30;;;0.24;100.00;99962.41;5012345;28;20503;-76
2023/12/02 10:09:46;;;;;;;9.90;6.75;;;2.00;34.00;;;0.30;100.00;99990.03;5003329;28;20464;-76
2023/12/02 10:12:30;;;;;;;7.25;6.30;;;1.90;1.00;;;0.27;100.00;99988.31;4985512;28;20440;-76
2023/12/02 10:15:05;;;;;;;9.60;8.27;;;1.80;1.00;;;-0.03;100.00;99937.91;5016665;28;20038;-76
2023/12/02 10:17:42;;;;;;;9.05;6.78;;;1.80;1.00;;;0.13;100.00;99966.56;4987936;28;20046;-76
2023/12/02 10:20:12;;;;;;;9.13;7.97;;;1.70;1.00;;;0.26;100.00;99981.41;5002991;28;20060;-77
2023/12/02 10:22:47;;;;;;;9.23;7.45;;;1.80;1.00;;;0.20;100.00;99972.69;4995420;28;20046;-77